Time;durP1;ratioP1;P1;durP2;ratioP2;P2;SDS_P1;SDS_P2;PMS_P1;PMS_P2;Temp;Humidity;BMP_temperature;BMP_pressure;BME280_temperature;BME280_humidity;BME280_pressure;Samples;Min_cycle;Max_cycle;Signal;HPM_P1;HPM_P2
2021/08/22 00:00:01;;;;;;;12.90;3.38;;;26.80;46.30;;;;;;6225406;28;20049;-76
2021/08/22 00:03:02;;;;;;;6.32;2.90;;;26.70;46.60;;;;;;6250673;28;20033;-77
2021/08/22 00:06:04;;;;;;;4.07;2.55;;;26.70;46.70;;;;;;6240772;28;20202;-77
2021/08/22 00:09:05;;;;;;;5.95;3.13;;;26.70;46.80;;;;;;6232572;28;20107;-77
2021/08/22 00:12:07;;;;;;;5.82;3.22;;;26.70;46.90;;;;;;6249401;28;20045;-78
2021/08/22 00:15:08;;;;;;;7.50;2.88;;;26.70;46.90;;;;;;6225890;28;20117;-77
2021/08/22 00:18:09;;;;;;;5.20;2.85;;;26.60;47.00;;;;;;6249484;28;20343;-77
2021/08/22 00:21:10;;;;;;;6.43;3.35;;;26.60;47.10;;;;;;6207923;28;20045;-77
2021/08/22 00:24:11;;;;;;;4.97;2.95;;;26.60;47.30;;;;;;6224569;28;20046;-77
2021/08/22 00:27:12;;;;;;;5.85;2.90;;;26.50;47.40;;;;;;6208545;28;20126;-77
2021/08/22 00:30:13;;;;;;;7.47;2.63;;;26.50;47.70;;;;;;6243300;28;20079;-76
2021/08/22 00:33:15;;;;;;;5.28;2.78;;;26.40;47.90;;;;;;6248277;28;20042;-77
2021/08/22 00:36:16;;;;;;;5.85;3.50;;;26.40;48.00;;;;;;6248798;28;20473;-77
2021/08/22 00:39:16;;;;;;;4.80;2.67;;;26.30;48.30;;;;;;6248762;28;20037;-77
2021/08/22 00:42:17;;;;;;;7.53;2.95;;;26.30;48.50;;;;;;6249202;28;20037;-77
2021/08/22 00:45:18;;;;;;;5.53;2.50;;;26.30;48.60;;;;;;6248570;28;20121;-77
2021/08/22 00:48:19;;;;;;;5.65;3.40;;;26.30;48.90;;;;;;6247263;28;20054;-77
2021/08/22 00:51:20;;;;;;;5.55;3.38;;;26.20;49.00;;;;;;6248427;28;20044;-77
2021/08/22 00:54:21;;;;;;;5.07;3.22;;;26.20;49.20;;;;;;6248877;28;20036;-77
2021/08/22 00:57:22;;;;;;;8.23;3.75;;;26.20;49.50;;;;;;6232040;28;20095;-77
2021/08/22 01:00:23;;;;;;;7.70;3.38;;;26.20;49.80;;;;;;6248824;28;20025;-77
2021/08/22 01:03:40;;;;;;;6.53;3.50;;;26.20;50.00;;;;;;6248846;28;20041;-77
2021/08/22 01:07:05;;;;;;;6.50;3.55;;;26.20;50.40;;;;;;6245914;28;20366;-77
2021/08/22 01:10:09;;;;;;;10.50;3.35;;;26.20;50.40;;;;;;6239536;28;20037;-76
2021/08/22 01:13:16;;;;;;;4.50;3.00;;;26.20;50.50;;;;;;6221319;28;20066;-77
2021/08/22 01:16:18;;;;;;;7.50;3.20;;;26.20;50.60;;;;;;6246260;28;20041;-76
2021/08/22 01:19:34;;;;;;;4.72;3.17;;;26.30;50.70;;;;;;6245751;28;20044;-76
2021/08/22 01:22:38;;;;;;;8.35;3.30;;;26.30;50.60;;;;;;6232190;28;20054;-76
2021/08/22 01:25:40;;;;;;;7.97;3.13;;;26.30;50.20;;;;;;6229827;28;20041;-77
2021/08/22 01:28:43;;;;;;;5.53;3.08;;;26.30;49.90;;;;;;6291826;28;20047;-76
2021/08/22 01:31:47;;;;;;;4.55;2.70;;;26.40;49.60;;;;;;6288706;28;20084;-75
2021/08/22 01:34:48;;;;;;;5.53;2.78;;;26.30;49.30;;;;;;6249933;28;20420;-78
2021/08/22 01:37:51;;;;;;;13.63;3.38;;;26.40;49.80;;;;;;6222855;28;20121;-77
2021/08/22 01:40:54;;;;;;;6.15;3.28;;;26.40;49.10;;;;;;6237923;28;20403;-77
2021/08/22 01:43:56;;;;;;;6.57;3.38;;;26.40;49.00;;;;;;6243793;28;20064;-76
2021/08/22 01:46:57;;;;;;;7.38;3.47;;;26.40;48.90;;;;;;6244629;28;20049;-77
2021/08/22 01:49:58;;;;;;;5.63;2.80;;;26.40;48.90;;;;;;6241882;28;20115;-76
2021/08/22 01:53:04;;;;;;;5.18;2.95;;;26.30;48.90;;;;;;6242926;28;20041;-77
2021/08/22 01:56:06;;;;;;;4.75;2.85;;;26.30;48.90;;;;;;6243189;28;20034;-77
2021/08/22 01:59:08;;;;;;;8.65;3.30;;;26.30;49.00;;;;;;6244200;28;20063;-78
2021/08/22 02:02:10;;;;;;;6.15;3.05;;;26.30;49.10;;;;;;6203682;28;20096;-78
2021/08/22 02:05:12;;;;;;;7.63;3.08;;;26.30;49.10;;;;;;6242352;28;20049;-78
2021/08/22 02:08:20;;;;;;;5.13;3.05;;;26.30;49.20;;;;;;6242917;28;20494;-77
2021/08/22 02:11:27;;;;;;;8.53;3.03;;;26.20;49.30;;;;;;6228449;28;20171;-78
2021/08/22 02:14:30;;;;;;;5.43;3.40;;;26.20;49.40;;;;;;6225383;28;20029;-77
2021/08/22 02:17:35;;;;;;;5.32;3.25;;;26.20;49.60;;;;;;6245053;28;20037;-78
2021/08/22 02:20:38;;;;;;;6.95;3.58;;;26.20;49.90;;;;;;6243768;28;20454;-77
2021/08/22 02:23:39;;;;;;;7.25;3.40;;;26.10;49.90;;;;;;6227026;28;20113;-77
2021/08/22 02:26:40;;;;;;;8.73;2.95;;;26.10;50.10;;;;;;6245202;28;20033;-77
2021/08/22 02:29:49;;;;;;;8.93;3.75;;;26.10;50.20;;;;;;6245931;28;20363;-76
2021/08/22 02:32:51;;;;;;;7.47;3.53;;;26.10;50.40;;;;;;6251930;28;20037;-77
2021/08/22 02:35:52;;;;;;;13.43;3.65;;;26.00;50.50;;;;;;6251245;28;20037;-77
2021/08/22 02:38:54;;;;;;;6.95;3.67;;;26.00;50.70;;;;;;6251015;28;20132;-77
2021/08/22 02:41:55;;;;;;;7.28;3.42;;;26.00;50.80;;;;;;6250384;28;20045;-78
2021/08/22 02:44:55;;;;;;;9.80;3.72;;;26.00;50.80;;;;;;6226338;28;20061;-78
2021/08/22 02:47:59;;;;;;;6.45;3.38;;;26.00;51.00;;;;;;6249702;28;20141;-77
2021/08/22 02:51:01;;;;;;;6.10;3.38;;;26.00;50.90;;;;;;6209898;28;20038;-77
2021/08/22 02:54:02;;;;;;;9.25;3.50;;;26.00;51.00;;;;;;6226913;28;20033;-77
2021/08/22 02:57:03;;;;;;;8.18;3.53;;;26.00;51.10;;;;;;6224108;28;20041;-78
2021/08/22 03:00:06;;;;;;;7.30;3.40;;;26.10;51.20;;;;;;6225741;28;20129;-78
2021/08/22 03:03:07;;;;;;;6.68;3.88;;;26.10;51.30;;;;;;6251699;28;20045;-78
2021/08/22 03:06:08;;;;;;;9.38;4.22;;;26.10;51.90;;;;;;6249739;28;20058;-77
2021/08/22 03:09:10;;;;;;;9.05;3.90;;;26.10;51.40;;;;;;6233039;28;20052;-77
2021/08/22 03:12:11;;;;;;;7.47;3.92;;;26.10;51.50;;;;;;6248921;28;20126;-78
2021/08/22 03:15:12;;;;;;;8.43;3.45;;;26.00;51.60;;;;;;6249668;28;20033;-78
2021/08/22 03:18:13;;;;;;;7.40;2.92;;;26.00;51.70;;;;;;6251214;28;20044;-80
2021/08/22 03:21:14;;;;;;;5.53;3.17;;;26.00;51.80;;;;;;6250955;28;20362;-76
2021/08/22 03:24:15;;;;;;;8.15;3.38;;;25.90;51.80;;;;;;6247221;28;20343;-76
2021/08/22 03:27:16;;;;;;;8.63;3.95;;;25.90;51.90;;;;;;6249508;28;20087;-76
2021/08/22 03:30:17;;;;;;;7.10;3.53;;;25.90;51.90;;;;;;6249352;28;20045;-76
2021/08/22 03:33:19;;;;;;;8.65;3.67;;;25.90;52.00;;;;;;6250436;28;20420;-76
2021/08/22 03:36:20;;;;;;;4.65;3.22;;;25.80;52.10;;;;;;6250285;28;20171;-76
2021/08/22 03:39:21;;;;;;;4.85;3.25;;;25.80;52.20;;;;;;6249177;28;20598;-76
2021/08/22 03:42:22;;;;;;;7.35;3.45;;;25.80;52.30;;;;;;6248293;28;20033;-76
2021/08/22 03:45:23;;;;;;;7.75;3.63;;;25.80;52.30;;;;;;6224800;28;20034;-76
2021/08/22 03:48:24;;;;;;;4.35;3.00;;;25.80;52.50;;;;;;6244936;28;20026;-76
2021/08/22 03:51:26;;;;;;;8.15;3.00;;;25.80;52.30;;;;;;6225398;28;20049;-76
2021/08/22 03:54:27;;;;;;;5.50;3.75;;;25.80;52.10;;;;;;6224575;28;20038;-76
2021/08/22 03:57:29;;;;;;;9.00;3.17;;;25.80;51.90;;;;;;6224638;28;20026;-76
2021/08/22 04:00:30;;;;;;;7.35;3.25;;;25.80;51.70;;;;;;6207814;28;20450;-77
2021/08/22 04:03:31;;;;;;;5.35;2.90;;;25.80;51.40;;;;;;6223905;28;20121;-77
2021/08/22 04:06:51;;;;;;;6.85;3.45;;;25.80;51.20;;;;;;6248823;28;20362;-77
2021/08/22 04:09:53;;;;;;;6.22;3.00;;;25.80;50.90;;;;;;6247732;28;20053;-76
2021/08/22 04:12:55;;;;;;;5.43;3.00;;;26.30;51.20;;;;;;6232211;28;20041;-77
2021/08/22 04:15:56;;;;;;;7.35;3.22;;;25.80;50.90;;;;;;6231924;28;20124;-76
2021/08/22 04:18:56;;;;;;;4.82;3.03;;;25.80;50.80;;;;;;6248380;28;20040;-76
2021/08/22 04:21:58;;;;;;;7.05;3.00;;;25.80;50.80;;;;;;6248091;28;20104;-76
2021/08/22 04:24:59;;;;;;;5.45;3.15;;;25.70;50.80;;;;;;6247628;28;20044;-77
2021/08/22 04:28:00;;;;;;;4.97;3.00;;;25.80;50.90;;;;;;6249022;28;20459;-76
2021/08/22 04:31:01;;;;;;;5.18;3.17;;;25.80;50.80;;;;;;6256890;28;20366;-77
2021/08/22 04:34:02;;;;;;;6.88;2.83;;;25.80;51.40;;;;;;6273244;28;20052;-77
2021/08/22 04:37:03;;;;;;;4.88;2.83;;;25.80;50.80;;;;;;6248312;28;20451;-76
2021/08/22 04:40:06;;;;;;;4.53;2.97;;;25.70;50.60;;;;;;6230909;28;20048;-76
2021/08/22 04:43:07;;;;;;;4.82;3.17;;;25.70;50.60;;;;;;6231434;28;20041;-76
2021/08/22 04:46:07;;;;;;;6.25;2.80;;;25.70;50.60;;;;;;6247541;28;20127;-76
2021/08/22 04:49:09;;;;;;;4.90;2.83;;;25.70;50.50;;;;;;6247676;28;20355;-76
2021/08/22 04:52:10;;;;;;;6.05;3.25;;;25.70;50.50;;;;;;6230706;28;20041;-77
2021/08/22 04:55:11;;;;;;;8.98;2.80;;;25.70;50.40;;;;;;6247591;28;20034;-77
2021/08/22 04:58:11;;;;;;;6.57;2.58;;;25.70;50.30;;;;;;6231047;28;20125;-77
2021/08/22 05:01:12;;;;;;;6.35;2.67;;;25.70;50.30;;;;;;6230867;28;20362;-77
2021/08/22 05:04:13;;;;;;;3.92;2.90;;;25.70;50.30;;;;;;6230795;28;20033;-77
2021/08/22 05:07:14;;;;;;;6.32;3.30;;;25.70;50.30;;;;;;6222669;28;20400;-77
2021/08/22 05:10:16;;;;;;;4.80;2.65;;;25.60;50.40;;;;;;6247352;28;20076;-77
2021/08/22 05:13:17;;;;;;;5.95;2.47;;;25.60;50.50;;;;;;6224060;28;20038;-77
2021/08/22 05:16:18;;;;;;;6.72;3.42;;;25.50;50.50;;;;;;6206564;28;20034;-77
2021/08/22 05:19:19;;;;;;;6.57;3.33;;;25.50;50.60;;;;;;6222837;28;20370;-77
2021/08/22 05:22:20;;;;;;;8.80;2.72;;;25.50;50.80;;;;;;6222791;28;20030;-77
2021/08/22 05:25:21;;;;;;;6.22;3.05;;;25.40;50.80;;;;;;6222976;28;20115;-77
2021/08/22 05:28:24;;;;;;;6.07;2.85;;;25.40;51.00;;;;;;6222846;28;20511;-77
2021/08/22 05:31:25;;;;;;;11.05;3.50;;;25.40;51.10;;;;;;6248332;28;20057;-77
2021/08/22 05:34:26;;;;;;;9.88;3.25;;;25.30;51.10;;;;;;6222442;28;20465;-77
2021/08/22 05:37:27;;;;;;;9.77;3.35;;;25.30;51.20;;;;;;6221229;28;20524;-77
2021/08/22 05:40:28;;;;;;;4.00;2.60;;;25.30;51.40;;;;;;6222455;28;20477;-77
2021/08/22 05:43:29;;;;;;;8.32;2.80;;;25.30;51.50;;;;;;6223391;28;20042;-77
2021/08/22 05:46:32;;;;;;;5.05;3.05;;;25.20;51.50;;;;;;6221199;28;20034;-77
2021/08/22 05:49:38;;;;;;;5.38;2.63;;;25.20;51.60;;;;;;6222639;28;20034;-77
2021/08/22 05:52:39;;;;;;;6.70;2.70;;;25.20;51.60;;;;;;6252836;28;20553;-78
2021/08/22 05:55:41;;;;;;;7.40;3.03;;;25.20;51.60;;;;;;6259323;28;20097;-78
2021/08/22 05:58:42;;;;;;;5.65;3.65;;;25.30;51.70;;;;;;6264900;28;20405;-77
2021/08/22 06:01:43;;;;;;;4.97;2.78;;;25.30;51.70;;;;;;6231455;28;20056;-78
2021/08/22 06:04:44;;;;;;;5.95;2.97;;;25.30;51.70;;;;;;6244797;28;20480;-78
2021/08/22 06:07:45;;;;;;;4.32;2.67;;;25.30;51.70;;;;;;6234908;28;20038;-78
2021/08/22 06:10:46;;;;;;;5.38;3.10;;;25.30;51.70;;;;;;6249830;28;20057;-77
2021/08/22 06:13:47;;;;;;;9.95;3.25;;;25.40;51.80;;;;;;6235266;28;20127;-77
2021/08/22 06:16:48;;;;;;;5.75;3.30;;;25.50;51.80;;;;;;6252969;28;20037;-77
2021/08/22 06:19:49;;;;;;;7.28;3.65;;;25.50;51.70;;;;;;6257221;28;20033;-77
2021/08/22 06:22:51;;;;;;;4.93;2.78;;;25.50;51.70;;;;;;6250665;28;20087;-77
2021/08/22 06:25:52;;;;;;;4.85;2.90;;;25.50;51.80;;;;;;6233395;28;20033;-77
2021/08/22 06:28:53;;;;;;;3.80;2.72;;;25.50;51.80;;;;;;6253207;28;20103;-77
2021/08/22 06:31:54;;;;;;;4.28;2.70;;;25.60;51.80;;;;;;6267209;28;20052;-77
2021/08/22 06:34:55;;;;;;;4.68;3.00;;;25.60;51.60;;;;;;6251633;28;20366;-77
2021/08/22 06:37:56;;;;;;;7.32;3.25;;;25.70;51.40;;;;;;6231617;28;20037;-78
2021/08/22 06:40:57;;;;;;;5.72;3.28;;;25.80;51.30;;;;;;6241164;28;20443;-77
2021/08/22 06:43:59;;;;;;;4.90;3.10;;;25.80;51.10;;;;;;6267140;28;20098;-78
2021/08/22 06:47:00;;;;;;;6.10;3.65;;;25.80;51.00;;;;;;6250337;28;20470;-77
2021/08/22 06:50:03;;;;;;;9.75;3.35;;;25.80;51.00;;;;;;6258260;28;20030;-77
2021/08/22 06:53:04;;;;;;;9.35;3.40;;;25.80;51.00;;;;;;6250209;28;20034;-78
2021/08/22 06:56:06;;;;;;;5.70;3.05;;;25.90;51.00;;;;;;6234171;28;20111;-78
2021/08/22 06:59:07;;;;;;;7.97;3.05;;;25.90;51.00;;;;;;6249896;28;20045;-77
2021/08/22 07:02:10;;;;;;;6.07;3.25;;;26.00;51.00;;;;;;6241391;28;20034;-78
2021/08/22 07:05:13;;;;;;;7.70;3.08;;;26.00;50.70;;;;;;6215725;28;20130;-79
2021/08/22 07:08:14;;;;;;;9.05;3.30;;;26.00;50.60;;;;;;6204678;28;20351;-78
2021/08/22 07:11:15;;;;;;;13.32;3.78;;;26.10;50.60;;;;;;6224013;28;20124;-77
2021/08/22 07:14:16;;;;;;;22.13;4.30;;;26.20;50.50;;;;;;6225972;28;20454;-78
2021/08/22 07:17:20;;;;;;;13.95;3.88;;;26.30;50.50;;;;;;6225089;28;20030;-79
2021/08/22 07:20:21;;;;;;;9.13;3.60;;;26.40;50.30;;;;;;6182629;28;20443;-82
2021/08/22 07:23:22;;;;;;;10.82;3.45;;;26.50;50.00;;;;;;6216687;28;20049;-80
2021/08/22 07:26:23;;;;;;;5.93;3.40;;;26.50;49.70;;;;;;6210075;28;20034;-79
2021/08/22 07:29:24;;;;;;;4.45;2.95;;;26.60;49.60;;;;;;6200671;28;20495;-76
2021/08/22 07:32:25;;;;;;;4.40;3.17;;;26.60;49.40;;;;;;6184250;28;20053;-77
2021/08/22 07:35:26;;;;;;;5.05;3.30;;;26.60;49.30;;;;;;6200251;28;20066;-76
2021/08/22 07:38:28;;;;;;;5.75;3.28;;;26.60;49.30;;;;;;6224239;28;20044;-80
2021/08/22 07:41:29;;;;;;;11.75;3.63;;;26.70;49.20;;;;;;6224447;28;20463;-79
2021/08/22 07:44:31;;;;;;;5.68;3.50;;;26.80;49.10;;;;;;6224274;28;20030;-80
2021/08/22 07:47:35;;;;;;;7.05;3.25;;;26.90;49.00;;;;;;6224817;28;20048;-77
2021/08/22 07:50:36;;;;;;;11.95;3.33;;;26.90;48.80;;;;;;6225470;28;20029;-76
2021/08/22 07:53:37;;;;;;;5.90;3.22;;;27.00;48.70;;;;;;6207302;28;20473;-77
2021/08/22 07:56:42;;;;;;;7.88;4.05;;;27.10;48.60;;;;;;6197745;28;20081;-77
2021/08/22 07:59:44;;;;;;;10.10;4.03;;;27.20;48.50;;;;;;6224893;28;20037;-77
2021/08/22 08:02:45;;;;;;;8.07;3.40;;;27.30;48.20;;;;;;6249422;28;20041;-78
2021/08/22 08:05:46;;;;;;;5.22;3.47;;;27.30;48.10;;;;;;6217563;28;20041;-78
2021/08/22 08:08:47;;;;;;;11.18;3.55;;;27.40;48.00;;;;;;6239390;28;20061;-78
2021/08/22 08:11:48;;;;;;;5.07;3.05;;;27.60;47.90;;;;;;6262323;28;20045;-77
2021/08/22 08:14:48;;;;;;;7.25;3.00;;;27.70;47.70;;;;;;6262737;28;20192;-76
2021/08/22 08:17:49;;;;;;;5.50;3.17;;;27.80;47.50;;;;;;6248057;28;20103;-76
2021/08/22 08:20:50;;;;;;;4.85;3.08;;;27.80;47.50;;;;;;6248069;28;20052;-76
2021/08/22 08:23:51;;;;;;;6.47;3.20;;;27.90;47.40;;;;;;6230672;28;20123;-77
2021/08/22 08:26:52;;;;;;;6.25;3.28;;;28.00;47.20;;;;;;6248307;28;20465;-76
2021/08/22 08:29:53;;;;;;;5.43;3.22;;;28.10;47.00;;;;;;6249165;28;20034;-76
2021/08/22 08:32:54;;;;;;;6.10;3.70;;;28.20;46.90;;;;;;6247589;28;20056;-77
2021/08/22 08:35:56;;;;;;;7.15;3.30;;;28.40;46.80;;;;;;6246126;28;20061;-82
2021/08/22 08:38:56;;;;;;;6.70;4.10;;;28.40;46.60;;;;;;6246426;28;20099;-78
2021/08/22 08:42:13;;;;;;;5.60;3.42;;;28.50;46.40;;;;;;6221287;28;20044;-77
2021/08/22 08:45:38;;;;;;;5.07;3.08;;;28.60;46.30;;;;;;6235638;28;20128;-78
2021/08/22 08:48:52;;;;;;;10.35;3.63;;;28.70;46.10;;;;;;6231723;28;20037;-77
2021/08/22 08:52:02;;;;;;;5.30;3.17;;;28.70;45.90;;;;;;6243786;28;20184;-78
2021/08/22 08:55:18;;;;;;;4.90;2.95;;;28.80;45.80;;;;;;6245397;28;20116;-77
2021/08/22 08:58:19;;;;;;;4.43;2.80;;;28.90;45.80;;;;;;6244210;28;20095;-77
2021/08/22 09:01:20;;;;;;;5.50;3.10;;;29.00;45.60;;;;;;6243950;28;20034;-77
2021/08/22 09:04:27;;;;;;;8.38;2.88;;;29.10;45.60;;;;;;6243085;28;20041;-76
2021/08/22 09:08:05;;;;;;;7.43;3.40;;;29.20;45.60;;;;;;6240089;28;20033;-77
2021/08/22 09:11:43;;;;;;;6.65;3.40;;;29.30;45.50;;;;;;6254513;28;20041;-78
2021/08/22 09:15:18;;;;;;;5.07;2.90;;;29.30;45.40;;;;;;6257522;28;20374;-78
2021/08/22 09:18:59;;;;;;;6.57;2.83;;;29.40;45.50;;;;;;6233517;28;20037;-79
2021/08/22 09:22:57;;;;;;;5.63;2.88;;;29.50;45.30;;;;;;6259440;28;20401;-78
2021/08/22 09:26:35;;;;;;;5.45;3.25;;;29.70;45.10;;;;;;6176758;28;20210;-78
2021/08/22 09:30:33;;;;;;;5.40;3.08;;;29.70;44.80;;;;;;6169306;28;20058;-78
2021/08/22 09:34:11;;;;;;;7.28;3.15;;;29.70;45.00;;;;;;6078507;29;20472;-80
2021/08/22 09:37:45;;;;;;;4.80;2.83;;;29.80;45.00;;;;;;6071336;29;20040;-80
2021/08/22 09:41:01;;;;;;;6.10;3.13;;;29.90;44.80;;;;;;6100024;29;20036;-82
2021/08/22 09:44:39;;;;;;;4.85;2.70;;;29.90;44.90;;;;;;6093517;29;20119;-81
2021/08/22 09:47:57;;;;;;;5.90;3.10;;;30.00;44.90;;;;;;6090877;29;20032;-77
2021/08/22 09:51:16;;;;;;;5.88;2.88;;;30.10;44.90;;;;;;6115693;29;20474;-80
2021/08/22 09:54:54;;;;;;;9.00;2.95;;;30.20;44.80;;;;;;6124895;29;20035;-78
2021/08/22 09:58:13;;;;;;;8.27;3.05;;;30.30;44.60;;;;;;6170732;28;20065;-79
2021/08/22 10:01:33;;;;;;;4.50;2.78;;;30.30;44.50;;;;;;6174033;28;20031;-79
2021/08/22 10:04:54;;;;;;;4.43;2.90;;;30.20;44.60;;;;;;6207350;28;20050;-78
2021/08/22 10:08:04;;;;;;;5.88;3.38;;;30.20;44.50;;;;;;6228556;28;20034;-80
2021/08/22 10:11:08;;;;;;;5.72;2.85;;;30.30;44.30;;;;;;6254979;28;20033;-78
2021/08/22 10:14:10;;;;;;;4.30;2.80;;;30.30;43.80;;;;;;6229359;28;20037;-78
2021/08/22 10:17:26;;;;;;;3.90;2.75;;;30.40;43.90;;;;;;6248595;28;20036;-77
2021/08/22 10:20:39;;;;;;;;;;;30.40;43.90;;;;;;6235875;28;20029;-80
2021/08/22 10:23:42;;;;;;;5.75;2.65;;;30.60;44.00;;;;;;6243071;28;19917;-79
2021/08/22 10:26:58;;;;;;;4.97;3.05;;;30.70;43.90;;;;;;6256980;28;20033;-79
2021/08/22 10:30:02;;;;;;;4.60;2.95;;;30.70;43.80;;;;;;6251842;28;20093;-80
2021/08/22 10:33:04;;;;;;;5.38;2.65;;;30.80;43.70;;;;;;6229571;28;20465;-79
2021/08/22 10:36:27;;;;;;;7.93;3.00;;;30.80;43.50;;;;;;6204660;28;20037;-79
2021/08/22 10:39:30;;;;;;;7.90;2.70;;;30.90;43.20;;;;;;6207831;28;20042;-80
2021/08/22 10:42:31;;;;;;;5.60;2.70;;;30.80;43.00;;;;;;6273713;28;20044;-80
2021/08/22 10:45:41;;;;;;;5.63;3.00;;;30.80;43.10;;;;;;6273349;28;20116;-80
2021/08/22 10:48:42;;;;;;;8.75;2.42;;;30.80;43.10;;;;;;6274306;28;20040;-78
2021/08/22 10:52:20;;;;;;;4.97;2.55;;;30.90;42.90;;;;;;6271532;28;20053;-79
2021/08/22 10:55:28;;;;;;;3.95;2.67;;;31.20;42.50;;;;;;6271652;28;20108;-79
2021/08/22 10:59:15;;;;;;;5.35;3.08;;;31.60;41.80;;;;;;6264959;28;20045;-79
2021/08/22 11:02:16;;;;;;;7.32;3.20;;;32.00;41.10;;;;;;6221488;28;20034;-79
2021/08/22 11:05:19;;;;;;;13.88;3.10;;;32.40;40.80;;;;;;6247822;28;20033;-79
2021/08/22 11:08:24;;;;;;;6.10;3.20;;;32.70;40.00;;;;;;6222386;28;20069;-79
2021/08/22 11:11:25;;;;;;;5.35;2.90;;;32.90;39.30;;;;;;6223215;28;20042;-78
2021/08/22 11:14:26;;;;;;;3.83;2.90;;;33.10;39.10;;;;;;6221062;28;20443;-80
2021/08/22 11:17:27;;;;;;;4.07;2.58;;;33.30;38.60;;;;;;6220979;28;20410;-81
2021/08/22 11:20:30;;;;;;;5.95;3.38;;;33.50;38.10;;;;;;6205875;28;20033;-77
2021/08/22 11:23:31;;;;;;;3.95;2.92;;;33.70;37.80;;;;;;6221570;28;20163;-78
2021/08/22 11:26:33;;;;;;;5.45;2.70;;;34.00;37.40;;;;;;6222660;28;20514;-78
2021/08/22 11:29:34;;;;;;;3.72;2.85;;;34.10;37.00;;;;;;6221992;28;20048;-78
2021/08/22 11:32:37;;;;;;;14.98;2.97;;;34.30;36.60;;;;;;6189218;28;20057;-78
2021/08/22 11:35:40;;;;;;;11.95;2.65;;;34.60;36.10;;;;;;6221399;28;20123;-77
2021/08/22 11:38:41;;;;;;;3.90;2.70;;;34.80;35.50;;;;;;6230785;28;20053;-78
2021/08/22 11:41:48;;;;;;;4.75;2.95;;;35.00;35.10;;;;;;6221022;28;20478;-77
2021/08/22 11:44:49;;;;;;;6.07;2.67;;;35.00;35.00;;;;;;6221278;28;20054;-77
2021/08/22 11:47:51;;;;;;;6.47;3.33;;;35.10;34.90;;;;;;6221445;28;20048;-77
2021/08/22 11:51:00;;;;;;;5.53;3.17;;;35.00;34.60;;;;;;6221202;28;20347;-77
2021/08/22 11:54:01;;;;;;;3.80;2.83;;;35.00;34.20;;;;;;6219833;28;20030;-77
2021/08/22 11:57:17;;;;;;;4.20;3.00;;;35.10;34.30;;;;;;6221238;28;20034;-77
2021/08/22 12:00:19;;;;;;;4.68;3.20;;;35.20;34.20;;;;;;6220501;28;20117;-78
2021/08/22 12:03:22;;;;;;;5.78;3.40;;;35.40;33.90;;;;;;6221319;28;20040;-77
2021/08/22 12:06:23;;;;;;;13.05;3.47;;;35.60;33.40;;;;;;6218468;28;20340;-78
2021/08/22 12:09:26;;;;;;;4.38;2.80;;;35.80;33.10;;;;;;6243583;28;20099;-77
2021/08/22 12:12:27;;;;;;;5.70;2.88;;;36.00;32.60;;;;;;6220349;28;20040;-77
2021/08/22 12:15:36;;;;;;;7.45;2.80;;;36.20;32.20;;;;;;6203674;28;20034;-77
2021/08/22 12:18:38;;;;;;;8.85;3.13;;;36.40;31.80;;;;;;6232936;28;20038;-77
2021/08/22 12:21:39;;;;;;;4.10;2.78;;;36.50;31.10;;;;;;6241215;28;20390;-77
2021/08/22 12:24:48;;;;;;;3.63;2.65;;;36.60;30.90;;;;;;6243658;28;20049;-77
2021/08/22 12:27:49;;;;;;;3.60;2.83;;;36.80;30.70;;;;;;6232660;28;20536;-77
2021/08/22 12:31:03;;;;;;;4.00;2.78;;;37.00;30.30;;;;;;6206482;28;20037;-78
2021/08/22 12:34:17;;;;;;;6.47;2.90;;;37.10;29.90;;;;;;6244219;28;20921;-78
2021/08/22 12:37:20;;;;;;;8.13;3.00;;;37.20;29.80;;;;;;6243209;28;20025;-79
2021/08/22 12:40:25;;;;;;;4.68;2.70;;;37.40;29.50;;;;;;6239784;28;20041;-79
2021/08/22 12:43:26;;;;;;;5.07;2.75;;;37.70;29.40;;;;;;6226932;28;20029;-78
2021/08/22 12:46:28;;;;;;;7.85;2.63;;;38.20;28.60;;;;;;6242937;28;20508;-78
2021/08/22 12:49:30;;;;;;;3.67;2.70;;;38.40;28.30;;;;;;6245691;28;20040;-78
2021/08/22 12:52:31;;;;;;;8.63;3.00;;;38.50;27.90;;;;;;6245202;28;20378;-78
2021/08/22 12:55:32;;;;;;;4.60;2.33;;;38.50;27.70;;;;;;6246353;28;20037;-78
2021/08/22 12:58:33;;;;;;;4.63;2.50;;;38.60;27.70;;;;;;6227196;28;20091;-79
2021/08/22 13:01:34;;;;;;;4.63;2.50;;;38.60;27.60;;;;;;6234511;28;20030;-79
2021/08/22 13:04:35;;;;;;;3.63;2.65;;;38.70;27.40;;;;;;6223869;28;20034;-79
2021/08/22 13:07:37;;;;;;;5.30;2.90;;;38.90;27.30;;;;;;6225722;28;20486;-78
2021/08/22 13:10:39;;;;;;;5.90;2.90;;;38.70;27.30;;;;;;6248675;28;20041;-78
2021/08/22 13:13:40;;;;;;;4.20;2.63;;;38.60;27.20;;;;;;6252183;28;20359;-78
2021/08/22 13:16:41;;;;;;;5.00;2.67;;;38.20;27.70;;;;;;6248699;28;20045;-78
2021/08/22 13:19:42;;;;;;;3.28;2.55;;;38.00;28.40;;;;;;6222554;28;20045;-78
2021/08/22 13:22:44;;;;;;;4.10;2.80;;;37.60;28.20;;;;;;6223218;28;20045;-78
2021/08/22 13:25:45;;;;;;;2.95;2.38;;;37.70;28.20;;;;;;6206308;28;20045;-78
2021/08/22 13:28:47;;;;;;;7.68;2.33;;;38.10;27.80;;;;;;6224061;28;20037;-78
2021/08/22 13:31:48;;;;;;;3.13;2.33;;;38.50;27.30;;;;;;6222154;28;20042;-79
2021/08/22 13:34:49;;;;;;;6.20;2.50;;;38.70;27.10;;;;;;6217567;28;20076;-80
2021/08/22 13:37:50;;;;;;;3.78;2.50;;;38.40;27.10;;;;;;6197413;28;20038;-79
2021/08/22 13:40:51;;;;;;;4.30;2.72;;;38.30;27.00;;;;;;6226204;28;20037;-78
2021/08/22 13:43:52;;;;;;;4.05;2.40;;;37.80;27.50;;;;;;6235505;28;20041;-80
2021/08/22 13:46:53;;;;;;;4.97;2.92;;;37.00;28.30;;;;;;6218755;28;20149;-80
2021/08/22 13:49:53;;;;;;;4.05;2.67;;;36.30;29.00;;;;;;6246336;28;20057;-80
2021/08/22 13:52:55;;;;;;;7.45;2.63;;;35.80;29.70;;;;;;6245892;28;20052;-82
2021/08/22 13:55:56;;;;;;;3.70;2.60;;;36.10;29.60;;;;;;6244782;28;20347;-88
2021/08/22 13:58:57;;;;;;;7.22;2.80;;;35.90;29.70;;;;;;6242504;28;20126;-80
2021/08/22 14:01:58;;;;;;;3.92;2.97;;;35.50;30.00;;;;;;6237048;28;20402;-80
2021/08/22 14:04:59;;;;;;;3.20;2.47;;;35.10;30.80;;;;;;6233501;28;20042;-80
2021/08/22 14:08:00;;;;;;;3.45;2.42;;;34.70;31.60;;;;;;6247975;28;20466;-80
2021/08/22 14:11:01;;;;;;;3.80;2.50;;;34.40;32.10;;;;;;6219781;28;20033;-79
2021/08/22 14:14:02;;;;;;;4.40;2.42;;;34.70;32.00;;;;;;6246563;28;20044;-79
2021/08/22 14:17:03;;;;;;;3.67;2.25;;;35.10;31.10;;;;;;6243638;28;20041;-80
2021/08/22 14:20:06;;;;;;;3.67;2.80;;;34.80;31.70;;;;;;6228788;28;20049;-79
2021/08/22 14:23:10;;;;;;;4.75;2.72;;;34.40;32.60;;;;;;6244761;28;20029;-79
2021/08/22 14:26:11;;;;;;;4.80;2.50;;;34.10;33.10;;;;;;6264767;28;20034;-80
2021/08/22 14:29:12;;;;;;;5.20;2.75;;;34.00;33.30;;;;;;6249953;28;20120;-79
2021/08/22 14:32:13;;;;;;;4.25;2.92;;;33.90;33.40;;;;;;6224995;28;20467;-80
2021/08/22 14:35:15;;;;;;;8.85;2.80;;;33.80;33.20;;;;;;6226310;28;20056;-79
2021/08/22 14:38:17;;;;;;;5.00;2.80;;;33.80;33.20;;;;;;6206737;28;20417;-79
2021/08/22 14:41:18;;;;;;;5.88;2.75;;;33.60;33.10;;;;;;6208418;28;20038;-79
2021/08/22 14:44:20;;;;;;;4.13;2.60;;;33.40;33.50;;;;;;6249317;28;20461;-79
2021/08/22 14:47:24;;;;;;;3.13;2.22;;;33.20;34.00;;;;;;6225909;28;20050;-79
2021/08/22 14:50:25;;;;;;;6.18;3.05;;;33.10;34.20;;;;;;6231692;28;20358;-79
2021/08/22 14:53:26;;;;;;;3.92;2.50;;;32.90;33.90;;;;;;6250466;28;20042;-79
2021/08/22 14:56:27;;;;;;;3.75;2.50;;;32.70;33.90;;;;;;6224493;28;20431;-79
2021/08/22 14:59:28;;;;;;;3.60;2.35;;;32.60;33.70;;;;;;6207665;28;20040;-79
2021/08/22 15:02:30;;;;;;;2.35;2.05;;;32.50;33.70;;;;;;6250218;28;20347;-79
2021/08/22 15:05:31;;;;;;;3.28;2.20;;;32.50;33.60;;;;;;6249109;28;20465;-79
2021/08/22 15:08:32;;;;;;;4.95;2.28;;;32.50;33.40;;;;;;6225111;28;20049;-80
2021/08/22 15:11:33;;;;;;;2.47;2.10;;;32.40;33.30;;;;;;6241665;28;20046;-80
2021/08/22 15:14:38;;;;;;;4.55;2.33;;;32.50;33.30;;;;;;6225747;28;20022;-80
2021/08/22 15:17:39;;;;;;;3.75;2.17;;;32.50;33.20;;;;;;6266006;28;20033;-79
2021/08/22 15:20:40;;;;;;;3.85;2.13;;;32.40;32.80;;;;;;6250993;28;20026;-80
2021/08/22 15:23:41;;;;;;;4.43;2.60;;;32.40;33.10;;;;;;6225183;28;20038;-79
2021/08/22 15:26:42;;;;;;;2.72;2.20;;;32.40;33.40;;;;;;6226486;28;20478;-80
2021/08/22 15:34:10;;;;;;;6.90;2.53;;;32.50;33.80;;;;;;6273288;28;20056;-80
2021/08/22 15:37:11;;;;;;;8.75;2.60;;;32.40;33.80;;;;;;6262795;28;20462;-80
2021/08/22 15:40:14;;;;;;;5.00;2.15;;;32.40;34.00;;;;;;6248793;28;20037;-80
2021/08/22 15:43:16;;;;;;;3.60;2.45;;;32.40;34.00;;;;;;6253679;28;20120;-80
2021/08/22 15:46:18;;;;;;;3.03;2.08;;;32.50;33.70;;;;;;6247148;28;20045;-79
2021/08/22 15:49:19;;;;;;;4.10;2.47;;;32.60;33.40;;;;;;6260440;28;20048;-80
2021/08/22 15:52:21;;;;;;;5.78;2.63;;;32.80;33.30;;;;;;6233274;28;20037;-81
2021/08/22 15:55:22;;;;;;;7.20;2.60;;;33.00;33.10;;;;;;6224003;28;20073;-80
2021/08/22 15:58:24;;;;;;;3.97;2.28;;;33.70;32.40;;;;;;6254695;28;20109;-80
2021/08/22 16:01:27;;;;;;;3.40;1.90;;;34.30;31.30;;;;;;6241023;28;20129;-81